createdAt,value
2023-01-11T00:01:09.317Z,59.60
2023-01-11T00:03:36.425Z,59.10
2023-01-11T00:06:04.865Z,59.70
2023-01-11T00:08:32.057Z,59.30
2023-01-11T00:10:58.910Z,59.60
2023-01-11T00:13:25.797Z,59.70
2023-01-11T00:15:52.682Z,59.30
2023-01-11T00:18:19.788Z,59.30
2023-01-11T00:20:46.697Z,59.30
2023-01-11T00:23:13.632Z,59.10
2023-01-11T00:25:40.624Z,59.30
2023-01-11T00:28:07.761Z,59.40
2023-01-11T00:30:35.812Z,59.20
2023-01-11T00:33:02.982Z,59.80
2023-01-11T00:35:32.193Z,59.50
2023-01-11T00:37:59.288Z,59.60
2023-01-11T00:40:27.060Z,59.70
2023-01-11T00:43:12.959Z,59.60
2023-01-11T00:45:58.737Z,59.80
2023-01-11T00:48:26.022Z,60.00
2023-01-11T00:50:57.188Z,60.10
2023-01-11T00:53:24.120Z,60.10
2023-01-11T00:55:51.024Z,59.80
2023-01-11T00:58:17.975Z,59.90
2023-01-11T01:00:44.863Z,60.10
2023-01-11T01:03:11.925Z,60.70
2023-01-11T01:05:39.290Z,60.50
2023-01-11T01:08:06.412Z,60.20
2023-01-11T01:10:33.353Z,59.80
2023-01-11T01:13:18.595Z,59.70
2023-01-11T01:15:45.559Z,59.30
2023-01-11T01:18:12.521Z,59.60
2023-01-11T01:20:39.642Z,59.40
2023-01-11T01:23:06.511Z,59.40
2023-01-11T01:25:33.411Z,59.50
2023-01-11T01:28:00.493Z,59.50
2023-01-11T01:30:27.492Z,59.50
2023-01-11T01:32:54.381Z,59.60
2023-01-11T01:35:21.330Z,59.60
2023-01-11T01:37:48.231Z,59.50
2023-01-11T01:40:15.139Z,59.20
2023-01-11T01:42:42.015Z,59.50
2023-01-11T01:45:25.183Z,59.50
2023-01-11T01:48:00.335Z,59.60
2023-01-11T01:50:32.079Z,59.90
2023-01-11T01:53:10.039Z,60.30
2023-01-11T01:55:40.978Z,60.20
2023-01-11T01:58:13.275Z,60.60
2023-01-11T02:00:42.483Z,60.40
2023-01-11T02:03:13.935Z,60.20
2023-01-11T02:05:40.846Z,59.90
2023-01-11T02:08:14.109Z,59.60
2023-01-11T02:10:41.436Z,59.90
2023-01-11T02:13:11.075Z,59.80
2023-01-11T02:15:38.294Z,59.50
2023-01-11T02:18:11.630Z,59.40
2023-01-11T02:21:16.573Z,59.70
2023-01-11T02:24:14.164Z,59.50
2023-01-11T02:27:00.205Z,59.50
2023-01-11T02:29:34.016Z,59.70
2023-01-11T02:32:22.110Z,59.60
2023-01-11T02:35:12.734Z,59.40
2023-01-11T02:37:51.395Z,59.40
2023-01-11T02:40:29.796Z,59.50
2023-01-11T02:43:30.396Z,59.50
2023-01-11T02:46:29.968Z,59.40
2023-01-11T02:49:05.762Z,59.30
2023-01-11T02:51:48.284Z,59.50
2023-01-11T02:54:19.572Z,59.30
2023-01-11T02:56:50.380Z,59.30
2023-01-11T02:59:23.802Z,59.50
2023-01-11T03:01:55.595Z,59.90
2023-01-11T03:04:27.416Z,59.80
2023-01-11T03:07:18.955Z,59.70
2023-01-11T03:09:57.944Z,59.60
2023-01-11T03:12:52.704Z,59.80
2023-01-11T03:15:41.970Z,59.50
2023-01-11T03:18:11.765Z,59.70
2023-01-11T03:20:49.307Z,59.80
2023-01-11T03:23:22.281Z,59.60
2023-01-11T03:25:59.961Z,59.60
2023-01-11T03:28:37.440Z,59.60
2023-01-11T03:31:21.329Z,59.50
2023-01-11T03:34:03.421Z,59.40
2023-01-11T03:36:39.211Z,59.50
2023-01-11T03:39:17.743Z,59.40
2023-01-11T03:41:45.965Z,59.30
2023-01-11T03:44:16.084Z,59.40
2023-01-11T03:46:54.799Z,59.40
2023-01-11T03:50:18.608Z,59.30
2023-01-11T03:52:46.188Z,59.20
2023-01-11T03:55:16.457Z,59.30
2023-01-11T03:57:51.316Z,59.20
2023-01-11T04:00:20.538Z,59.30
2023-01-11T04:02:48.715Z,59.20
2023-01-11T04:05:15.951Z,59.60
2023-01-11T04:07:42.838Z,59.40
2023-01-11T04:10:10.407Z,59.40
2023-01-11T04:12:37.321Z,59.30
2023-01-11T04:15:05.627Z,59.40
2023-01-11T04:17:32.584Z,59.30
2023-01-11T04:19:59.435Z,59.20
2023-01-11T04:22:26.368Z,59.60
2023-01-11T04:24:53.317Z,59.60
2023-01-11T04:27:20.237Z,59.40
2023-01-11T04:29:47.150Z,59.50
2023-01-11T04:32:14.143Z,59.50
2023-01-11T04:34:41.045Z,59.50
2023-01-11T04:37:08.019Z,59.40
2023-01-11T04:39:35.042Z,59.30
2023-01-11T04:42:20.148Z,59.40
2023-01-11T04:44:49.112Z,59.50
2023-01-11T04:47:17.459Z,59.40
2023-01-11T04:49:44.672Z,59.50
2023-01-11T04:52:13.201Z,59.30
2023-01-11T04:54:40.497Z,59.30
2023-01-11T04:57:10.596Z,59.30
2023-01-11T04:59:37.473Z,59.50
2023-01-11T05:02:04.406Z,59.70
2023-01-11T05:04:31.403Z,59.60
2023-01-11T05:06:58.514Z,59.60
2023-01-11T05:09:25.575Z,59.90
2023-01-11T05:11:52.565Z,59.90
2023-01-11T05:14:19.531Z,60.00
2023-01-11T05:16:46.591Z,60.00
2023-01-11T05:19:13.670Z,60.00
2023-01-11T05:21:42.315Z,60.00
2023-01-11T05:24:18.420Z,60.20
2023-01-11T05:26:46.228Z,60.20
2023-01-11T05:29:16.407Z,60.30
2023-01-11T05:31:43.832Z,60.30
2023-01-11T05:34:13.464Z,60.10
2023-01-11T05:36:41.368Z,60.80
2023-01-11T05:39:08.878Z,59.90
2023-01-11T05:41:36.219Z,60.10
2023-01-11T05:44:21.580Z,60.20
2023-01-11T05:46:48.544Z,60.20
2023-01-11T05:49:16.015Z,60.00
2023-01-11T05:51:43.926Z,60.00
2023-01-11T05:54:13.573Z,59.90
2023-01-11T05:56:42.553Z,59.90
2023-01-11T05:59:09.986Z,59.90
2023-01-11T06:01:37.286Z,59.90
2023-01-11T06:04:04.481Z,60.00
2023-01-11T06:06:32.120Z,60.40
2023-01-11T06:08:59.128Z,60.30
2023-01-11T06:11:26.121Z,60.10
2023-01-11T06:13:53.127Z,60.20
2023-01-11T06:16:21.384Z,60.60
2023-01-11T06:18:50.507Z,60.80
2023-01-11T06:21:18.794Z,60.70
2023-01-11T06:23:48.681Z,61.00
2023-01-11T06:26:17.506Z,61.10
2023-01-11T06:28:44.801Z,61.40
2023-01-11T06:31:12.144Z,61.70
2023-01-11T06:33:39.567Z,61.80
2023-01-11T06:36:09.265Z,61.80
2023-01-11T06:38:36.855Z,61.60
2023-01-11T06:41:08.329Z,62.00
2023-01-11T06:43:37.141Z,61.80
2023-01-11T06:46:04.985Z,61.70
2023-01-11T06:48:32.225Z,62.10
2023-01-11T06:50:59.772Z,62.00
2023-01-11T06:53:29.262Z,62.00
2023-01-11T06:55:58.517Z,62.10
2023-01-11T06:58:27.019Z,62.20
2023-01-11T07:00:57.164Z,62.00
2023-01-11T07:03:26.122Z,62.10
2023-01-11T07:05:54.209Z,62.10
2023-01-11T07:08:21.206Z,62.00
2023-01-11T07:10:48.455Z,62.00
2023-01-11T07:13:18.906Z,62.20
2023-01-11T07:15:51.020Z,62.40
2023-01-11T07:18:19.147Z,61.60
2023-01-11T07:20:46.948Z,61.50
2023-01-11T07:23:14.141Z,61.70
2023-01-11T07:25:41.348Z,61.50
2023-01-11T07:28:09.940Z,61.40
2023-01-11T07:30:56.924Z,61.50
2023-01-11T07:33:25.649Z,61.70
2023-01-11T07:35:52.835Z,61.50
2023-01-11T07:38:19.985Z,61.70
2023-01-11T07:40:47.144Z,61.60
2023-01-11T07:43:15.267Z,61.50
2023-01-11T07:45:50.175Z,61.50
2023-01-11T07:48:21.489Z,61.40
2023-01-11T07:50:49.028Z,61.70
2023-01-11T07:53:16.019Z,61.30
2023-01-11T07:55:43.551Z,61.60
2023-01-11T07:58:14.421Z,61.60
2023-01-11T08:00:41.731Z,61.80
2023-01-11T08:03:09.243Z,61.60
2023-01-11T08:05:36.710Z,61.40
2023-01-11T08:08:04.488Z,61.60
2023-01-11T08:10:31.539Z,61.60
2023-01-11T08:13:17.287Z,61.60
2023-01-11T08:15:44.604Z,61.90
2023-01-11T08:18:12.621Z,61.90
2023-01-11T08:20:40.351Z,61.70
2023-01-11T08:23:09.981Z,61.60
2023-01-11T08:25:37.717Z,61.60
2023-01-11T08:28:06.248Z,61.40
2023-01-11T08:30:33.703Z,61.70
2023-01-11T08:33:01.953Z,61.70
2023-01-11T08:35:30.742Z,61.70
2023-01-11T08:37:57.803Z,61.40
2023-01-11T08:40:25.737Z,61.50
2023-01-11T08:42:58.903Z,61.70
2023-01-11T08:45:26.735Z,61.80
2023-01-11T08:47:54.676Z,61.60
2023-01-11T08:50:22.553Z,61.50
2023-01-11T08:52:51.097Z,61.70
2023-01-11T08:55:19.445Z,61.80
2023-01-11T08:57:46.648Z,61.80
2023-01-11T09:00:14.390Z,61.80
2023-01-11T09:02:41.516Z,61.80
2023-01-11T09:05:08.922Z,62.00
2023-01-11T09:07:35.883Z,62.00
2023-01-11T09:10:04.750Z,62.10
2023-01-11T09:12:32.709Z,62.00
2023-01-11T09:15:00.257Z,62.30
2023-01-11T09:17:27.647Z,62.30
2023-01-11T09:19:54.566Z,62.40
2023-01-11T09:22:21.514Z,62.50
2023-01-11T09:24:48.525Z,62.20
2023-01-11T09:27:16.428Z,61.90
2023-01-11T09:29:43.616Z,62.10
2023-01-11T09:32:10.610Z,62.20
2023-01-11T09:34:37.786Z,61.90
2023-01-11T09:37:06.844Z,61.90
2023-01-11T09:39:35.139Z,61.80
2023-01-11T09:42:05.491Z,61.90
2023-01-11T09:44:36.607Z,61.70
2023-01-11T09:47:17.648Z,61.90
2023-01-11T09:49:56.269Z,62.00
2023-01-11T09:52:25.371Z,62.40
2023-01-11T09:54:52.642Z,62.20
2023-01-11T09:57:40.654Z,61.90
2023-01-11T10:00:22.191Z,61.40
2023-01-11T10:03:12.345Z,61.50
2023-01-11T10:05:58.887Z,61.30
2023-01-11T10:18:22.821Z,61.30
2023-01-11T10:19:12.307Z,60.50
2023-01-11T10:21:50.563Z,60.10
2023-01-11T10:24:56.351Z,60.70
2023-01-11T10:27:32.373Z,60.60
2023-01-11T10:30:33.270Z,60.30
2023-01-11T10:33:42.761Z,60.60
2023-01-11T10:36:39.640Z,60.70
2023-01-11T10:39:45.516Z,60.70
2023-01-11T10:42:22.991Z,60.80
2023-01-11T10:45:02.070Z,60.70
2023-01-11T10:48:02.705Z,60.80
2023-01-11T10:50:41.837Z,61.50
2023-01-11T10:53:18.122Z,59.60
2023-01-11T10:56:19.973Z,60.00
2023-01-11T10:59:08.438Z,60.10
2023-01-11T11:01:39.480Z,59.90
2023-01-11T11:04:39.436Z,59.90
2023-01-11T11:07:34.705Z,59.30
2023-01-11T11:10:16.117Z,59.90
2023-01-11T11:12:53.652Z,59.70
2023-01-11T11:15:39.138Z,60.20
2023-01-11T11:18:06.260Z,60.00
2023-01-11T11:20:34.379Z,60.30
2023-01-11T11:23:01.754Z,60.10
2023-01-11T11:25:42.041Z,60.00
2023-01-11T11:28:30.417Z,59.50
2023-01-11T11:31:08.095Z,60.00
2023-01-11T11:33:38.154Z,61.10
2023-01-11T11:36:08.852Z,60.30
2023-01-11T11:38:39.217Z,59.70
2023-01-11T11:41:09.027Z,58.90
2023-01-11T11:43:38.481Z,60.30
2023-01-11T11:46:19.426Z,59.90
2023-01-11T11:49:12.904Z,59.50
2023-01-11T11:51:41.267Z,59.00
2023-01-11T11:54:25.628Z,59.20
2023-01-11T11:56:53.707Z,60.10
2023-01-11T11:59:23.403Z,59.80
2023-01-11T12:01:59.852Z,59.00
2023-01-11T12:04:47.107Z,59.10
2023-01-11T12:07:23.890Z,59.40
2023-01-11T12:09:57.269Z,59.00
2023-01-11T12:12:26.879Z,58.70
2023-01-11T12:15:30.091Z,59.00
2023-01-11T12:18:23.472Z,58.20
2023-01-11T12:20:50.756Z,60.00
2023-01-11T12:23:24.005Z,58.90
2023-01-11T12:26:09.686Z,59.20
2023-01-11T12:29:11.762Z,59.90
2023-01-11T12:32:12.956Z,59.40
2023-01-11T12:34:42.851Z,58.20
2023-01-11T12:37:30.418Z,59.60
2023-01-11T12:40:23.839Z,58.60
2023-01-11T12:43:18.311Z,59.90
2023-01-11T12:45:48.353Z,58.60
2023-01-11T12:48:52.171Z,58.70
2023-01-11T12:51:36.215Z,57.90
2023-01-11T12:54:33.212Z,58.20
2023-01-11T12:57:18.159Z,59.50
2023-01-11T13:00:14.662Z,59.80
2023-01-11T13:02:50.416Z,59.00
2023-01-11T13:05:41.906Z,58.60
2023-01-11T13:08:20.428Z,59.70
2023-01-11T13:11:37.115Z,59.80
2023-01-11T13:14:19.763Z,59.30
2023-01-11T13:17:48.607Z,59.00
2023-01-11T13:20:18.137Z,59.00
2023-01-11T13:22:57.864Z,59.50
2023-01-11T13:25:28.733Z,58.50
2023-01-11T13:27:59.165Z,58.50
2023-01-11T13:30:26.890Z,58.70
2023-01-11T13:33:06.582Z,58.80
2023-01-11T13:35:50.090Z,58.90
2023-01-11T13:38:37.289Z,58.40
2023-01-11T13:41:18.716Z,58.10
2023-01-11T13:44:05.241Z,57.70
2023-01-11T13:46:58.275Z,58.30
2023-01-11T13:50:00.533Z,57.90
2023-01-11T13:52:36.168Z,58.00
2023-01-11T13:55:26.149Z,58.40
2023-01-11T13:58:19.478Z,57.90
2023-01-11T14:00:54.107Z,58.30
2023-01-11T14:03:36.945Z,58.80
2023-01-11T14:06:09.628Z,58.50
2023-01-11T14:08:45.581Z,58.30
2023-01-11T14:11:29.092Z,58.50
2023-01-11T14:14:22.438Z,58.90
2023-01-11T14:17:17.551Z,58.50
2023-01-11T14:19:50.492Z,58.60
2023-01-11T14:22:31.121Z,59.90
2023-01-11T14:25:14.117Z,60.30
2023-01-11T14:27:48.383Z,60.20
2023-01-11T14:30:35.051Z,60.10
2023-01-11T14:33:45.890Z,59.20
2023-01-11T14:36:28.216Z,59.30
2023-01-11T14:39:00.723Z,59.30
2023-01-11T14:41:30.654Z,59.60
2023-01-11T14:44:26.285Z,59.10
2023-01-11T14:47:02.415Z,58.70
2023-01-11T14:49:57.876Z,58.40
2023-01-11T14:52:39.491Z,57.60
2023-01-11T14:55:29.414Z,58.80
2023-01-11T14:57:56.520Z,55.20
2023-01-11T15:00:23.444Z,57.10
2023-01-11T15:02:53.219Z,58.00
2023-01-11T15:05:35.551Z,59.10
2023-01-11T15:08:24.091Z,60.20
2023-01-11T15:10:51.008Z,62.60
2023-01-11T15:13:22.649Z,61.20
2023-01-11T15:16:09.557Z,61.50
2023-01-11T15:18:46.522Z,60.80
2023-01-11T15:21:21.551Z,59.70
2023-01-11T15:23:52.225Z,59.40
2023-01-11T15:26:23.300Z,59.40
2023-01-11T15:28:58.201Z,60.30
2023-01-11T15:31:39.256Z,59.40
2023-01-11T15:34:22.738Z,59.20
2023-01-11T15:37:02.352Z,59.20
2023-01-11T15:39:51.617Z,59.10
2023-01-11T15:42:50.183Z,58.40
2023-01-11T15:46:14.659Z,58.10
2023-01-11T15:49:26.968Z,56.30
2023-01-11T15:52:08.218Z,58.40
2023-01-11T15:55:04.149Z,58.40
2023-01-11T15:57:52.526Z,58.80
2023-01-11T16:00:43.558Z,57.00
2023-01-11T16:04:00.827Z,57.30
2023-01-11T16:06:55.757Z,57.60
2023-01-11T16:09:41.902Z,57.10
2023-01-11T16:12:34.575Z,58.30
2023-01-11T16:15:23.248Z,57.40
2023-01-11T16:17:51.036Z,56.90
2023-01-11T16:20:20.663Z,57.10
2023-01-11T16:23:08.098Z,57.30
2023-01-11T16:25:39.015Z,57.20
2023-01-11T16:28:07.368Z,57.50
2023-01-11T16:30:34.795Z,58.30
2023-01-11T16:33:21.578Z,58.60
2023-01-11T16:35:49.034Z,55.60
2023-01-11T16:38:22.235Z,56.60
2023-01-11T16:40:54.496Z,56.30
2023-01-11T16:43:25.810Z,55.70
2023-01-11T16:45:56.500Z,57.00
2023-01-11T16:48:26.153Z,56.60
2023-01-11T16:51:03.228Z,57.00
2023-01-11T16:53:32.645Z,57.20
2023-01-11T16:56:27.778Z,55.80
2023-01-11T16:59:23.600Z,56.00
2023-01-11T17:01:59.340Z,56.80
2023-01-11T17:04:48.363Z,57.00
2023-01-11T17:07:33.586Z,56.10
2023-01-11T17:10:28.020Z,56.00
2023-01-11T17:13:54.428Z,56.60
2023-01-11T17:16:30.559Z,57.30
2023-01-11T17:19:07.412Z,57.10
2023-01-11T17:21:34.559Z,57.80
2023-01-11T17:24:05.593Z,57.50
2023-01-11T17:26:41.827Z,56.70
2023-01-11T17:29:09.218Z,57.20
2023-01-11T17:31:37.839Z,56.10
2023-01-11T17:34:20.612Z,55.80
2023-01-11T17:36:49.921Z,55.60
2023-01-11T17:39:32.750Z,55.70
2023-01-11T17:42:21.262Z,56.00
2023-01-11T17:45:09.080Z,56.70
2023-01-11T17:47:39.032Z,55.80
2023-01-11T17:50:17.665Z,56.60
2023-01-11T17:52:54.484Z,57.70
2023-01-11T17:55:27.588Z,58.20
2023-01-11T17:58:08.724Z,56.70
2023-01-11T18:00:36.184Z,55.10
2023-01-11T18:03:15.774Z,55.80
2023-01-11T18:05:43.717Z,57.50
2023-01-11T18:08:22.120Z,56.80
2023-01-11T18:10:55.403Z,56.80
2023-01-11T18:13:36.671Z,56.90
2023-01-11T18:16:04.434Z,58.20
2023-01-11T18:18:50.372Z,55.50
2023-01-11T18:21:26.156Z,55.60
2023-01-11T18:24:11.846Z,57.90
2023-01-11T18:26:41.184Z,58.60
2023-01-11T18:29:38.238Z,57.10
2023-01-11T18:32:08.426Z,57.60
2023-01-11T18:34:35.989Z,54.50
2023-01-11T18:37:07.311Z,55.00
2023-01-11T18:39:34.983Z,55.60
2023-01-11T18:42:10.175Z,57.30
2023-01-11T18:44:42.279Z,55.30
2023-01-11T18:47:15.867Z,53.80
2023-01-11T18:49:42.985Z,55.30
2023-01-11T18:52:11.010Z,53.50
2023-01-11T18:54:38.186Z,55.10
2023-01-11T18:57:05.259Z,58.00
2023-01-11T18:59:32.327Z,56.00
2023-01-11T19:02:17.002Z,57.40
2023-01-11T19:04:44.872Z,56.60
2023-01-11T19:07:12.958Z,54.80
2023-01-11T19:09:40.264Z,54.40
2023-01-11T19:12:07.601Z,56.30
2023-01-11T19:14:34.617Z,57.60
2023-01-11T19:17:01.663Z,55.80
2023-01-11T19:19:28.613Z,55.20
2023-01-11T19:21:55.711Z,56.40
2023-01-11T19:24:22.702Z,53.40
2023-01-11T19:26:50.055Z,54.30
2023-01-11T19:29:18.875Z,55.30
2023-01-11T19:31:47.531Z,56.00
2023-01-11T19:34:16.979Z,57.60
2023-01-11T19:36:44.803Z,57.50
2023-01-11T19:39:12.015Z,57.60
2023-01-11T19:41:54.759Z,55.40
2023-01-11T19:44:26.813Z,56.90
2023-01-11T19:47:09.715Z,56.40
2023-01-11T19:49:37.447Z,55.20
2023-01-11T19:52:05.804Z,56.90
2023-01-11T19:54:32.731Z,54.70
2023-01-11T19:56:59.875Z,54.70
2023-01-11T19:59:26.854Z,54.30
2023-01-11T20:01:54.165Z,55.50
2023-01-11T20:04:21.203Z,57.70
2023-01-11T20:06:51.982Z,57.90
2023-01-11T20:09:20.700Z,57.50
2023-01-11T20:11:53.143Z,56.10
2023-01-11T20:14:20.652Z,56.30
2023-01-11T20:16:47.700Z,56.60
2023-01-11T20:19:15.539Z,57.40
2023-01-11T20:21:42.489Z,55.90
2023-01-11T20:24:15.194Z,57.10
2023-01-11T20:26:42.606Z,58.10
2023-01-11T20:29:09.765Z,57.80
2023-01-11T20:31:36.864Z,57.90
2023-01-11T20:34:09.308Z,57.10
2023-01-11T20:36:37.065Z,55.30
2023-01-11T20:39:05.109Z,56.90
2023-01-11T20:41:47.356Z,57.20
2023-01-11T20:44:20.049Z,56.10
2023-01-11T20:46:48.395Z,55.80
2023-01-11T20:49:17.043Z,57.30
2023-01-11T20:51:45.502Z,55.10
2023-01-11T20:54:13.136Z,55.10
2023-01-11T20:56:41.642Z,55.70
2023-01-11T20:59:09.588Z,56.20
2023-01-11T21:01:37.451Z,55.90
2023-01-11T21:04:07.620Z,55.90
2023-01-11T21:06:36.358Z,56.20
2023-01-11T21:09:04.927Z,55.80
2023-01-11T21:11:32.242Z,56.80
2023-01-11T21:14:00.328Z,55.40
2023-01-11T21:16:29.094Z,56.10
2023-01-11T21:19:01.516Z,56.10
2023-01-11T21:21:30.525Z,55.00
2023-01-11T21:24:00.122Z,54.80
2023-01-11T21:26:28.788Z,55.70
2023-01-11T21:29:00.725Z,56.60
2023-01-11T21:31:29.520Z,56.50
2023-01-11T21:33:57.353Z,57.60
2023-01-11T21:36:25.527Z,57.10
2023-01-11T21:38:54.446Z,58.50
2023-01-11T21:41:43.791Z,56.70
2023-01-11T21:44:12.510Z,57.50
2023-01-11T21:46:40.249Z,55.90
2023-01-11T21:49:08.091Z,57.30
2023-01-11T21:51:35.290Z,57.90
2023-01-11T21:54:20.566Z,57.50
2023-01-11T21:56:48.761Z,56.10
2023-01-11T21:59:15.966Z,55.90
2023-01-11T22:01:45.162Z,55.00
2023-01-11T22:04:14.978Z,57.30
2023-01-11T22:06:43.919Z,56.80
2023-01-11T22:09:12.138Z,57.30
2023-01-11T22:11:39.778Z,56.70
2023-01-11T22:14:08.648Z,56.50
2023-01-11T22:16:37.147Z,57.50
2023-01-11T22:19:08.665Z,56.70
2023-01-11T22:21:36.868Z,57.20
2023-01-11T22:24:05.036Z,56.60
2023-01-11T22:26:39.123Z,56.40
2023-01-11T22:29:17.006Z,56.00
2023-01-11T22:32:01.139Z,56.00
2023-01-11T22:34:28.567Z,56.60
2023-01-11T22:36:55.980Z,56.90
2023-01-11T22:39:24.118Z,57.20
2023-01-11T22:41:51.409Z,57.30
2023-01-11T22:44:19.500Z,57.20
2023-01-11T22:46:46.655Z,56.90
2023-01-11T22:49:14.647Z,56.20
2023-01-11T22:51:43.140Z,56.20
2023-01-11T22:54:11.461Z,56.60
2023-01-11T22:56:38.434Z,56.70
2023-01-11T22:59:05.794Z,56.60
2023-01-11T23:01:40.200Z,56.70
2023-01-11T23:04:10.456Z,57.50
2023-01-11T23:06:39.966Z,57.10
2023-01-11T23:09:09.612Z,57.60
2023-01-11T23:11:56.419Z,56.30
2023-01-11T23:14:28.640Z,57.50
2023-01-11T23:16:57.307Z,57.50
2023-01-11T23:19:24.413Z,56.40
2023-01-11T23:21:51.391Z,56.80
2023-01-11T23:24:18.576Z,57.90
2023-01-11T23:26:45.928Z,56.60
2023-01-11T23:29:13.390Z,57.50
2023-01-11T23:31:40.419Z,58.20
2023-01-11T23:34:08.468Z,58.10
2023-01-11T23:36:38.559Z,58.40
2023-01-11T23:39:07.900Z,58.30
2023-01-11T23:41:53.243Z,56.90
2023-01-11T23:44:20.381Z,57.00
2023-01-11T23:47:05.884Z,57.80
2023-01-11T23:49:33.542Z,58.20
2023-01-11T23:52:01.573Z,58.40
2023-01-11T23:54:31.440Z,57.90
2023-01-11T23:56:59.836Z,57.20
2023-01-11T23:59:27.107Z,57.90
